Dedham, Massachusetts
Current Conditions -  °F | °C
As of 3:53 PM on Thursday 27 Nov 2014 (Local Time) from KOWD Reporting Station
Overcast Overcast  
Wind Chill: 32°   Ceiling: 2400
Heat Index: 36°   Visibility: 10mi
Dew Point: 30°   Wind: 5mph
Humidity: 79%   Direction: 330°NNW
Pressure: 29.97"   Gusts: NA
Location:  42.25°N, 71.17°W
Report Text: KOWD 272053Z 33004KT 10SM OVC024 02/M01 A2997 RMK AO2 SLP148 T00221011 53010
Loading
Personal Weather Stations






























Interactive Weather Map New forecast layout! Learn more

10-Day Weather Forecast

Advertisements
Track Severe Weather on mobile